createdAt,value
2023-05-14T00:00:06.867Z,10.8
2023-05-14T00:05:06.895Z,8.5
2023-05-14T00:10:06.520Z,11.6
2023-05-14T00:15:06.927Z,9.7
2023-05-14T00:20:06.437Z,8.7
2023-05-14T00:25:06.920Z,7.5
2023-05-14T00:30:06.453Z,7.2
2023-05-14T00:35:06.871Z,6.7
2023-05-14T00:40:06.611Z,7.7
2023-05-14T00:45:06.307Z,6.1
2023-05-14T00:50:06.810Z,5.9
2023-05-14T00:55:06.284Z,6.5
2023-05-14T01:00:06.773Z,5.9
2023-05-14T01:05:06.528Z,5.6
2023-05-14T01:10:06.545Z,7.3
2023-05-14T01:15:06.306Z,5.3
2023-05-14T01:20:06.630Z,6.6
2023-05-14T01:25:07.007Z,5.3
2023-05-14T01:30:06.521Z,4.4
2023-05-14T01:35:06.440Z,5
2023-05-14T01:40:06.959Z,4.6
2023-05-14T01:45:06.496Z,4.5
2023-05-14T01:50:07.074Z,6.2
2023-05-14T01:55:06.728Z,4.7
2023-05-14T02:00:06.256Z,4.7
2023-05-14T02:05:06.865Z,3.7
2023-05-14T02:10:06.463Z,4.3
2023-05-14T02:15:06.882Z,5.7
2023-05-14T02:20:06.437Z,4.4
2023-05-14T02:25:06.898Z,4.3
2023-05-14T02:30:06.348Z,4.2
2023-05-14T02:35:06.892Z,5.1
2023-05-14T02:40:06.352Z,3.9
2023-05-14T02:45:06.792Z,3.5
2023-05-14T02:50:06.379Z,4.3
2023-05-14T02:55:06.796Z,3.5
2023-05-14T03:00:06.291Z,4
2023-05-14T03:05:06.232Z,5.3
2023-05-14T03:10:06.971Z,6.8
2023-05-14T03:15:06.365Z,6.3
2023-05-14T03:20:06.852Z,4.6
2023-05-14T03:25:06.364Z,5.8
2023-05-14T03:30:07.013Z,5.3
2023-05-14T03:35:06.422Z,6
2023-05-14T03:40:06.921Z,6.5
2023-05-14T03:45:06.286Z,4.9
2023-05-14T03:50:06.821Z,5.5
2023-05-14T03:55:06.316Z,5.8
2023-05-14T04:00:06.879Z,5
2023-05-14T04:05:06.552Z,8.4
2023-05-14T04:10:06.344Z,7.3
2023-05-14T04:15:06.756Z,6.7
2023-05-14T04:20:06.282Z,8.4
2023-05-14T04:25:06.701Z,7.3
2023-05-14T04:30:06.211Z,6.9
2023-05-14T04:35:06.535Z,8.1
2023-05-14T04:40:06.953Z,7
2023-05-14T04:45:06.395Z,6.4
2023-05-14T04:50:06.254Z,6.9
2023-05-14T04:55:06.487Z,6.4
2023-05-14T05:00:07.057Z,7.1
2023-05-14T05:05:06.785Z,9.2
2023-05-14T05:10:06.303Z,7.5
2023-05-14T05:15:06.645Z,6.2
2023-05-14T05:20:06.217Z,7.3
2023-05-14T05:25:06.692Z,5.6
2023-05-14T05:30:06.170Z,6.1
2023-05-14T05:35:06.614Z,6.8
2023-05-14T05:40:07.068Z,5.8
2023-05-14T05:45:06.500Z,7.1
2023-05-14T05:50:06.965Z,7.5
2023-05-14T05:55:06.464Z,7.7
2023-05-14T06:00:06.859Z,8.2
2023-05-14T06:05:06.282Z,6.2
2023-05-14T06:10:06.839Z,5.9
2023-05-14T06:15:06.257Z,4.6
2023-05-14T06:20:06.770Z,4.7
2023-05-14T06:25:06.393Z,3.6
2023-05-14T06:30:06.891Z,5
2023-05-14T06:35:06.373Z,6.2
2023-05-14T06:40:06.717Z,6.1
2023-05-14T06:45:06.088Z,6.2
2023-05-14T06:50:06.755Z,5
2023-05-14T06:55:06.241Z,5.7
2023-05-14T07:00:06.814Z,4.7
2023-05-14T07:05:06.450Z,5
2023-05-14T07:10:06.804Z,5.1
2023-05-14T07:15:06.192Z,5.7
2023-05-14T07:20:06.676Z,4.1
2023-05-14T07:25:06.172Z,5.3
2023-05-14T07:30:06.743Z,4.4
2023-05-14T07:35:06.147Z,5.8
2023-05-14T07:40:06.682Z,5.1
2023-05-14T07:45:06.061Z,5
2023-05-14T07:50:06.570Z,5.5
2023-05-14T07:55:07.012Z,5.9
2023-05-14T08:00:06.590Z,5.7
2023-05-14T08:05:06.244Z,3.9
2023-05-14T08:10:06.612Z,5.4
2023-05-14T08:15:06.917Z,5.7
2023-05-14T08:20:06.446Z,5.1
2023-05-14T08:25:06.853Z,5.1
2023-05-14T08:30:06.246Z,4.4
2023-05-14T08:35:06.634Z,5.2
2023-05-14T08:40:07.061Z,5.6
2023-05-14T08:45:06.516Z,4.1
2023-05-14T08:50:06.956Z,3.8
2023-05-14T08:55:06.516Z,3.9
2023-05-14T09:00:06.999Z,4.9
2023-05-14T09:05:06.570Z,4.7
2023-05-14T09:10:06.139Z,4.6
2023-05-14T09:15:06.621Z,4.8
2023-05-14T09:20:06.166Z,5.4
2023-05-14T09:25:06.454Z,7
2023-05-14T09:30:06.894Z,6.5
2023-05-14T09:35:06.381Z,4.1
2023-05-14T09:40:06.846Z,4.8
2023-05-14T09:45:06.399Z,3.2
2023-05-14T09:50:06.773Z,4.4
2023-05-14T09:55:06.913Z,4.4
2023-05-14T10:00:06.774Z,6.9
2023-05-14T10:05:06.407Z,4.2
2023-05-14T10:10:06.965Z,4.8
2023-05-14T10:15:06.391Z,4.9
2023-05-14T10:20:06.855Z,3.9
2023-05-14T10:25:06.357Z,3.7
2023-05-14T10:30:06.936Z,4.2
2023-05-14T10:35:06.432Z,4.4
2023-05-14T10:40:06.262Z,4.9
2023-05-14T10:45:06.634Z,3.9
2023-05-14T10:50:06.589Z,4.9
2023-05-14T10:55:07.037Z,6.5
2023-05-14T11:00:06.626Z,4.2
2023-05-14T11:05:06.262Z,4.6
2023-05-14T11:10:06.734Z,5.6
2023-05-14T11:15:06.242Z,4.2
2023-05-14T11:20:06.752Z,4
2023-05-14T11:25:06.235Z,4
2023-05-14T11:30:06.535Z,4.2
2023-05-14T11:35:07.095Z,3.5
2023-05-14T11:40:06.462Z,3.9
2023-05-14T11:45:06.983Z,4.8
2023-05-14T11:50:06.813Z,3.4
2023-05-14T11:55:06.360Z,4.4
2023-05-14T12:00:07.121Z,3.9
2023-05-14T12:05:06.121Z,4.2
2023-05-14T12:10:06.867Z,4.3
2023-05-14T12:15:06.104Z,3.7
2023-05-14T12:20:06.482Z,4
2023-05-14T12:25:07.011Z,3.8
2023-05-14T12:30:06.296Z,3.8
2023-05-14T12:35:06.971Z,3.8
2023-05-14T12:40:06.229Z,4.8
2023-05-14T12:45:06.908Z,3.6
2023-05-14T12:50:06.271Z,5
2023-05-14T12:55:06.694Z,4.5
2023-05-14T13:00:06.182Z,3.4
2023-05-14T13:05:06.977Z,4.6
2023-05-14T13:10:06.518Z,4.8
2023-05-14T13:15:07.043Z,5.6
2023-05-14T13:20:06.449Z,7
2023-05-14T13:25:06.827Z,4.7
2023-05-14T13:30:06.223Z,5
2023-05-14T13:35:06.672Z,5.3
2023-05-14T13:40:06.198Z,4.3
2023-05-14T13:45:06.550Z,4.7
2023-05-14T13:50:07.071Z,6.7
2023-05-14T13:55:06.492Z,5.1
2023-05-14T14:00:06.973Z,4.8
2023-05-14T14:05:06.191Z,5.3
2023-05-14T14:10:06.910Z,5.6
2023-05-14T14:15:06.292Z,6.6
2023-05-14T14:20:06.820Z,6.2
2023-05-14T14:25:06.134Z,6.1
2023-05-14T14:30:06.514Z,5.7
2023-05-14T14:35:06.926Z,5.9
2023-05-14T14:40:06.256Z,5.4
2023-05-14T14:45:06.644Z,6
2023-05-14T14:50:07.064Z,6.2
2023-05-14T14:55:06.373Z,5.2
2023-05-14T15:00:06.960Z,7.8
2023-05-14T15:05:06.634Z,6.7
2023-05-14T15:10:06.102Z,7.1
2023-05-14T15:15:06.473Z,5
2023-05-14T15:20:06.950Z,5.4
2023-05-14T15:25:06.302Z,6.6
2023-05-14T15:30:06.745Z,6.5
2023-05-14T15:35:06.104Z,6.4
2023-05-14T15:40:06.684Z,5.6
2023-05-14T15:45:06.140Z,5.1
2023-05-14T15:50:06.601Z,7.7
2023-05-14T15:55:06.079Z,6.3
2023-05-14T16:00:06.618Z,7.1
2023-05-14T16:05:06.203Z,7.1
2023-05-14T16:10:06.756Z,7.7
2023-05-14T16:15:06.225Z,7.9
2023-05-14T16:20:06.756Z,6.8
2023-05-14T16:25:06.212Z,7.1
2023-05-14T16:30:06.680Z,6.5
2023-05-14T16:35:07.070Z,8.6
2023-05-14T16:40:06.573Z,5.8
2023-05-14T16:45:06.956Z,7.5
2023-05-14T16:50:06.441Z,8.1
2023-05-14T16:55:06.821Z,7.5
2023-05-14T17:00:06.461Z,8.4
2023-05-14T17:05:06.078Z,10.4
2023-05-14T17:10:06.662Z,7.7
2023-05-14T17:15:07.007Z,6.9
2023-05-14T17:20:06.468Z,7.8
2023-05-14T17:25:06.931Z,9.4
2023-05-14T17:30:06.504Z,13.5
2023-05-14T17:35:06.921Z,8.9
2023-05-14T17:40:06.486Z,8.5
2023-05-14T17:45:06.881Z,9.3
2023-05-14T17:50:06.561Z,11.3
2023-05-14T17:55:06.087Z,9.8
2023-05-14T18:00:06.540Z,10.9
2023-05-14T18:05:06.285Z,9
2023-05-14T18:10:06.596Z,10.4
2023-05-14T18:15:06.102Z,9.4
2023-05-14T18:20:06.712Z,11.1
2023-05-14T18:25:06.408Z,8.8
2023-05-14T18:30:06.872Z,9.3
2023-05-14T18:35:06.268Z,11
2023-05-14T18:40:06.572Z,9
2023-05-14T18:45:06.194Z,11.1
2023-05-14T18:50:06.558Z,9.9
2023-05-14T18:55:07.008Z,8.8
2023-05-14T19:00:06.439Z,10.3
2023-05-14T19:05:06.197Z,10.1
2023-05-14T19:10:06.572Z,8.3
2023-05-14T19:15:07.007Z,8.9
2023-05-14T19:20:06.401Z,7.8
2023-05-14T19:25:06.890Z,8
2023-05-14T19:30:06.456Z,8.6
2023-05-14T19:35:06.862Z,7.9
2023-05-14T19:40:06.272Z,7.5
2023-05-14T19:45:06.687Z,8.3
2023-05-14T19:50:06.190Z,8.6
2023-05-14T19:55:06.658Z,10.1
2023-05-14T20:00:06.296Z,7.3
2023-05-14T20:05:06.987Z,8.1
2023-05-14T20:10:06.340Z,7.7
2023-05-14T20:15:06.697Z,6.6
2023-05-14T20:20:06.150Z,8.3
2023-05-14T20:25:06.630Z,6.4
2023-05-14T20:30:07.017Z,8.6
2023-05-14T20:35:06.539Z,8.1
2023-05-14T20:40:06.902Z,7
2023-05-14T20:45:06.318Z,8.9
2023-05-14T20:50:06.681Z,7.3
2023-05-14T20:55:07.057Z,7.2
2023-05-14T21:00:06.503Z,9.7
2023-05-14T21:05:06.374Z,7.6
2023-05-14T21:10:06.921Z,7.1
2023-05-14T21:15:06.329Z,7.1
2023-05-14T21:20:06.899Z,7.2
2023-05-14T21:25:06.357Z,6.6
2023-05-14T21:30:06.876Z,8
2023-05-14T21:35:06.255Z,7.9
2023-05-14T21:40:06.490Z,8.1
2023-05-14T21:45:06.947Z,5.9
2023-05-14T21:50:06.412Z,8.9
2023-05-14T21:55:06.683Z,6.6
2023-05-14T22:00:06.374Z,7.1
2023-05-14T22:05:06.142Z,6.8
2023-05-14T22:10:06.559Z,7.4
2023-05-14T22:15:07.048Z,6.5
2023-05-14T22:20:06.499Z,7
2023-05-14T22:25:06.972Z,7.4
2023-05-14T22:30:06.462Z,7.4
2023-05-14T22:35:06.935Z,6.8
2023-05-14T22:40:06.642Z,8.1
2023-05-14T22:45:06.196Z,5.5
2023-05-14T22:50:06.711Z,8.6
2023-05-14T22:55:07.075Z,9.1
2023-05-14T23:00:06.555Z,7.7
2023-05-14T23:05:06.833Z,7.6
2023-05-14T23:10:06.309Z,8.3
2023-05-14T23:15:06.813Z,6
2023-05-14T23:20:06.267Z,7.8
2023-05-14T23:25:06.617Z,7.3
2023-05-14T23:30:06.173Z,5.3
2023-05-14T23:35:06.528Z,7.3
2023-05-14T23:40:07.031Z,6.3
2023-05-14T23:45:06.271Z,6.1
2023-05-14T23:50:06.881Z,5.5
2023-05-14T23:55:06.240Z,5.6
